Terminal Aerodrome Forecast
Issued by NWS Mt. Holly, NJ

Home | Current Version | Previous Version | Text Only | Print | Product List | Glossary On
Versions: 1 2 3 4 5 6 7 8 9 10 11 12 13 14 15 16 17 18 19 20 21 22 23 24 25 26
000
FTUS41 KPHI 070255 AAC
TAFPHL
TAF AMD
KPHL 070255Z 0703/0806 14006KT P6SM SCT013 BKN070
      TEMPO 0703/0705 BKN013
     FM070500 16006KT 4SM BR OVC009
      TEMPO 0705/0707 -SHRA
     FM071300 23010KT P6SM SCT030 BKN050
     FM080000 21009KT P6SM FEW150=

USA.gov is the U.S. government's official web portal to all federal, state and local government web resources and services.